Kansas City, Missouri
Traffic Map
Current Weather Conditions
Kansas City, Missouri
Scattered Clouds
Scattered Clouds
73°
Feels Like: 73°
Wind Chill: 73° Ceiling: Unl
Heat Index: 73° Visibility: 10mi
Dew Point: 61° Wind: 12mph
Humidity: 66% Direction: 150° (SSE)
Pressure: 29.77in Gusts: 17mph
Raw Report DataKMKC 010554Z 15010G15KT 10SM FEW060 SCT090 SCT110 23/16 A2977 RMK AO2 RAB04E37 SLP072 P0003 60003 T02280161 10272 20217 403000172 58004
Traffic Incident Summary
Active as of:
Severity:
Category:
InformationThere was an issue retrieving the traffic information for this location. Please try a different location or try again shortly.
Advertisements
Track Severe Weather on mobile